createdAt,value
2023-03-19T00:00:15.250Z,23.10
2023-03-19T00:05:39.033Z,21.97
2023-03-19T00:11:01.616Z,22.27
2023-03-19T00:16:24.490Z,22.73
2023-03-19T00:21:47.703Z,21.93
2023-03-19T00:27:10.508Z,21.97
2023-03-19T00:32:34.460Z,22.27
2023-03-19T00:37:56.772Z,22.03
2023-03-19T00:43:19.204Z,21.87
2023-03-19T00:48:41.441Z,22.50
2023-03-19T00:54:04.493Z,21.93
2023-03-19T00:59:26.811Z,21.15
2023-03-19T01:04:49.504Z,21.10
2023-03-19T01:10:12.427Z,21.07
2023-03-19T01:15:35.365Z,21.20
2023-03-19T01:20:58.499Z,21.60
2023-03-19T01:26:21.100Z,21.93
2023-03-19T01:31:43.469Z,21.97
2023-03-19T01:37:05.881Z,22.13
2023-03-19T01:42:28.355Z,21.27
2023-03-19T01:47:55.940Z,21.67
2023-03-19T01:53:20.304Z,20.80
2023-03-19T01:58:43.003Z,22.40
2023-03-19T02:04:06.871Z,22.70
2023-03-19T02:09:29.829Z,24.07
2023-03-19T02:14:52.104Z,21.83
2023-03-19T02:20:41.946Z,22.33
2023-03-19T02:26:16.790Z,22.00
2023-03-19T02:31:41.719Z,22.67
2023-03-19T02:37:18.025Z,23.22
2023-03-19T02:42:41.969Z,22.80
2023-03-19T02:48:04.250Z,22.33
2023-03-19T02:59:26.483Z,22.67
2023-03-19T03:04:49.279Z,23.77
2023-03-19T03:10:12.199Z,22.50
2023-03-19T03:15:35.012Z,24.80
2023-03-19T03:20:57.669Z,24.73
2023-03-19T03:26:20.348Z,23.77
2023-03-19T03:31:42.633Z,21.83
2023-03-19T03:37:04.898Z,23.23
2023-03-19T03:42:27.695Z,22.73
2023-03-19T03:47:49.894Z,23.57
2023-03-19T03:53:13.384Z,25.80
2023-03-19T03:58:36.050Z,25.03
2023-03-19T04:03:58.873Z,25.07
2023-03-19T04:09:21.391Z,27.67
2023-03-19T04:14:43.996Z,25.23
2023-03-19T04:20:06.203Z,25.70
2023-03-19T04:25:29.168Z,25.37
2023-03-19T04:30:52.504Z,23.60
2023-03-19T04:36:18.223Z,25.12
2023-03-19T04:41:40.472Z,23.13
2023-03-19T04:47:03.261Z,23.00
2023-03-19T04:52:26.469Z,24.00
2023-03-19T04:57:48.689Z,24.73
2023-03-19T05:03:11.926Z,26.73
2023-03-19T05:08:34.194Z,28.98
2023-03-19T05:13:56.457Z,30.77
2023-03-19T05:19:18.644Z,28.83
2023-03-19T05:24:41.203Z,27.25
2023-03-19T05:30:03.479Z,26.90
2023-03-19T05:35:26.628Z,26.95
2023-03-19T05:40:49.309Z,27.82
2023-03-19T05:46:12.109Z,26.17
2023-03-19T05:51:34.683Z,24.25
2023-03-19T05:56:56.890Z,27.80
2023-03-19T06:02:19.096Z,29.10
2023-03-19T06:07:41.447Z,29.07
2023-03-19T06:13:03.702Z,28.12
2023-03-19T06:18:26.371Z,28.15
2023-03-19T06:23:48.640Z,27.32
2023-03-19T06:29:11.800Z,27.10
2023-03-19T06:34:33.989Z,26.95
2023-03-19T06:39:56.389Z,27.50
2023-03-19T06:45:20.707Z,30.00
2023-03-19T06:50:42.927Z,30.75
2023-03-19T06:56:05.315Z,30.55
2023-03-19T07:01:28.052Z,32.48
2023-03-19T07:06:50.502Z,32.42
2023-03-19T07:12:13.644Z,34.55
2023-03-19T07:17:36.801Z,33.93
2023-03-19T07:22:59.152Z,34.70
2023-03-19T07:28:22.306Z,33.78
2023-03-19T07:33:44.597Z,35.75
2023-03-19T07:39:06.881Z,34.88
2023-03-19T07:44:29.674Z,34.73
2023-03-19T07:49:51.966Z,35.05
2023-03-19T07:55:14.462Z,36.08
2023-03-19T08:00:37.107Z,36.48
2023-03-19T08:06:00.901Z,37.40
2023-03-19T08:11:23.872Z,36.83
2023-03-19T08:16:46.230Z,35.20
2023-03-19T08:22:08.530Z,35.92
2023-03-19T08:27:31.677Z,36.20
2023-03-19T08:32:54.442Z,38.30
2023-03-19T08:38:17.318Z,36.40
2023-03-19T08:43:40.260Z,36.68
2023-03-19T08:49:03.652Z,35.92
2023-03-19T08:54:25.945Z,37.48
2023-03-19T08:59:49.045Z,36.28
2023-03-19T09:05:12.082Z,34.67
2023-03-19T09:10:34.769Z,36.10
2023-03-19T09:15:57.991Z,33.88
2023-03-19T09:21:20.556Z,32.45
2023-03-19T09:26:42.965Z,30.32
2023-03-19T09:32:05.370Z,31.85
2023-03-19T09:37:27.887Z,31.37
2023-03-19T09:42:57.925Z,28.40
2023-03-19T09:48:28.970Z,28.93
2023-03-19T09:54:13.076Z,26.90
2023-03-19T09:59:37.002Z,25.45
2023-03-19T10:05:17.356Z,29.35
2023-03-19T10:11:13.583Z,25.97
2023-03-19T10:16:39.062Z,25.97
2023-03-19T10:22:12.492Z,26.20
2023-03-19T10:27:37.602Z,26.37
2023-03-19T10:33:08.305Z,23.98
2023-03-19T10:38:43.117Z,24.30
2023-03-19T10:44:13.293Z,24.67
2023-03-19T10:49:36.532Z,22.35
2023-03-19T10:55:04.054Z,23.87
2023-03-19T11:00:31.607Z,21.45
2023-03-19T11:05:53.813Z,21.40
2023-03-19T11:11:18.295Z,19.20
2023-03-19T11:16:42.791Z,18.63
2023-03-19T11:22:10.754Z,20.43
2023-03-19T11:27:39.095Z,19.37
2023-03-19T11:33:24.592Z,18.87
2023-03-19T11:39:04.913Z,17.15
2023-03-19T11:44:47.183Z,17.50
2023-03-19T11:50:31.340Z,17.77
2023-03-19T11:56:15.261Z,16.48
2023-03-19T12:02:06.200Z,16.70
2023-03-19T12:13:01.512Z,15.88
2023-03-19T12:18:29.599Z,16.57
2023-03-19T12:24:15.719Z,14.07
2023-03-19T12:30:25.768Z,14.20
2023-03-19T12:35:54.530Z,14.63
2023-03-19T12:41:31.220Z,15.70
2023-03-19T12:47:04.846Z,15.50
2023-03-19T12:52:44.279Z,15.37
2023-03-19T12:58:20.247Z,16.10
2023-03-19T13:03:59.465Z,16.23
2023-03-19T13:09:35.717Z,16.93
2023-03-19T13:15:08.320Z,17.90
2023-03-19T13:21:03.998Z,20.37
2023-03-19T13:26:28.946Z,21.40
2023-03-19T13:31:55.533Z,21.70
2023-03-19T13:37:27.066Z,21.90
2023-03-19T13:43:03.749Z,21.00
2023-03-19T13:48:55.942Z,21.87
2023-03-19T13:54:43.997Z,22.27
2023-03-19T14:00:08.809Z,23.40
2023-03-19T14:05:38.017Z,25.47
2023-03-19T14:11:06.002Z,24.07
2023-03-19T14:16:38.746Z,23.80
2023-03-19T14:22:08.466Z,18.43
2023-03-19T14:27:40.887Z,18.67
2023-03-19T14:33:06.311Z,18.00
2023-03-19T14:38:45.989Z,16.53
2023-03-19T14:44:44.636Z,17.63
2023-03-19T14:50:45.149Z,16.23
2023-03-19T14:56:24.901Z,16.80
2023-03-19T15:01:50.772Z,18.30
2023-03-19T15:07:22.160Z,18.32
2023-03-19T15:12:58.930Z,18.90
2023-03-19T15:18:29.972Z,18.90
2023-03-19T15:23:55.389Z,19.32
2023-03-19T15:29:18.987Z,19.23
2023-03-19T15:34:43.215Z,20.17
2023-03-19T15:40:09.066Z,18.77
2023-03-19T15:45:35.552Z,18.32
2023-03-19T15:51:01.947Z,19.35
2023-03-19T15:56:26.090Z,19.90
2023-03-19T16:01:51.559Z,20.17
2023-03-19T16:07:17.068Z,21.17
2023-03-19T16:12:54.913Z,21.02
2023-03-19T16:18:25.510Z,22.05
2023-03-19T16:23:52.554Z,22.22
2023-03-19T16:29:35.971Z,22.35
2023-03-19T16:35:11.496Z,22.67
2023-03-19T16:40:38.869Z,22.75
2023-03-19T16:46:15.782Z,25.10
2023-03-19T16:51:39.936Z,25.00
2023-03-19T16:57:02.282Z,25.08
2023-03-19T17:02:32.269Z,24.30
2023-03-19T17:13:13.321Z,24.43
2023-03-19T17:18:42.357Z,22.15
2023-03-19T17:24:04.679Z,22.90
2023-03-19T17:29:28.397Z,20.95
2023-03-19T17:34:51.381Z,20.80
2023-03-19T17:40:29.874Z,22.32
2023-03-19T17:45:53.991Z,21.10
2023-03-19T17:51:18.008Z,23.10
2023-03-19T17:56:43.791Z,22.40
2023-03-19T18:02:07.183Z,22.65
2023-03-19T18:07:29.493Z,22.05
2023-03-19T18:12:52.373Z,21.90
2023-03-19T18:18:18.405Z,48.92
2023-03-19T18:23:41.090Z,23.15
2023-03-19T18:29:04.659Z,24.20
2023-03-19T18:34:29.433Z,23.47
2023-03-19T18:39:53.491Z,25.02
2023-03-19T18:45:16.231Z,25.05
2023-03-19T18:50:41.489Z,27.13
2023-03-19T18:56:06.509Z,25.65
2023-03-19T19:01:31.451Z,27.90
2023-03-19T19:06:55.320Z,27.10
2023-03-19T19:12:21.094Z,26.90
2023-03-19T19:17:44.830Z,27.77
2023-03-19T19:23:08.632Z,28.32
2023-03-19T19:28:41.408Z,26.10
2023-03-19T19:34:04.401Z,28.70
2023-03-19T19:39:28.040Z,30.70
2023-03-19T19:44:52.397Z,28.98
2023-03-19T19:50:18.199Z,29.73
2023-03-19T19:55:41.919Z,26.17
2023-03-19T20:01:05.374Z,28.35
2023-03-19T20:06:28.679Z,28.70
2023-03-19T20:11:58.519Z,27.15
2023-03-19T20:17:27.132Z,26.57
2023-03-19T20:22:53.902Z,28.33
2023-03-19T20:28:31.133Z,27.15
2023-03-19T20:33:53.434Z,28.57
2023-03-19T20:39:15.613Z,27.55
2023-03-19T20:44:39.387Z,53.42
2023-03-19T20:50:02.228Z,39.20
2023-03-19T20:55:28.199Z,28.40
2023-03-19T21:00:53.783Z,27.23
2023-03-19T21:06:27.203Z,28.35
2023-03-19T21:11:53.141Z,28.67
2023-03-19T21:17:15.370Z,35.98
2023-03-19T21:22:42.249Z,33.20
2023-03-19T21:28:09.122Z,34.53
2023-03-19T21:33:43.614Z,39.65
2023-03-19T21:39:06.539Z,38.28
2023-03-19T21:44:32.209Z,36.50
2023-03-19T21:49:55.400Z,39.90
2023-03-19T21:55:21.618Z,37.25
2023-03-19T22:00:44.463Z,41.45
2023-03-19T22:06:08.388Z,43.98
2023-03-19T22:11:44.345Z,45.70
2023-03-19T22:17:08.946Z,43.98
2023-03-19T22:22:32.780Z,44.55
2023-03-19T22:27:56.590Z,44.95
2023-03-19T22:33:25.625Z,48.20
2023-03-19T22:38:49.393Z,31.07
2023-03-19T22:44:14.652Z,42.48
2023-03-19T22:49:37.223Z,44.53
2023-03-19T22:54:59.452Z,42.33
2023-03-19T23:00:32.325Z,42.53
2023-03-19T23:05:59.187Z,41.10
2023-03-19T23:11:21.453Z,40.83
2023-03-19T23:16:44.090Z,40.28
2023-03-19T23:22:07.461Z,39.92
2023-03-19T23:27:37.165Z,38.85
2023-03-19T23:33:00.389Z,40.13
2023-03-19T23:38:23.247Z,39.45
2023-03-19T23:43:47.639Z,42.83
2023-03-19T23:49:10.107Z,43.30
2023-03-19T23:54:39.543Z,41.08
